Time;durP1;ratioP1;P1;durP2;ratioP2;P2;SDS_P1;SDS_P2;PMS_P1;PMS_P2;Temp;Humidity;BMP_temperature;BMP_pressure;BME280_temperature;BME280_humidity;BME280_pressure;Samples;Min_cycle;Max_cycle;Signal;HPM_P1;HPM_P2
2023/08/05 00:01:23;;;;;;;3.08;2.70;;;18.90;99.90;;;;;;5052141;28;20060;-78
2023/08/05 00:03:49;;;;;;;5.20;2.67;;;18.90;99.90;;;;;;5051796;28;20126;-82
2023/08/05 00:06:15;;;;;;;5.32;3.50;;;18.90;99.90;;;;;;5050897;28;20017;-78
2023/08/05 00:08:40;;;;;;;3.25;2.47;;;18.90;99.90;;;;;;5050902;28;20041;-82
2023/08/05 00:11:06;;;;;;;6.45;3.03;;;18.90;99.90;;;;;;5052140;28;20467;-82
2023/08/05 00:13:34;;;;;;;3.28;2.63;;;18.90;99.90;;;;;;5052169;28;20025;-78
2023/08/05 00:16:00;;;;;;;7.15;2.90;;;18.90;99.90;;;;;;5050879;28;20032;-78
2023/08/05 00:18:26;;;;;;;3.90;2.83;;;18.90;99.90;;;;;;5050979;28;20078;-78
2023/08/05 00:20:52;;;;;;;6.40;3.10;;;18.80;99.90;;;;;;5052061;28;20029;-78
2023/08/05 00:23:19;;;;;;;5.25;2.85;;;18.80;99.90;;;;;;5052207;28;20021;-78
2023/08/05 00:25:44;;;;;;;5.63;3.05;;;18.80;99.90;;;;;;5051710;28;20095;-78
2023/08/05 00:28:10;;;;;;;5.90;2.83;;;18.70;99.90;;;;;;5053149;28;20041;-82
2023/08/05 00:30:36;;;;;;;6.43;2.78;;;18.70;99.90;;;;;;5055967;28;20038;-82
2023/08/05 00:33:01;;;;;;;4.28;2.88;;;18.60;99.90;;;;;;5054790;28;20032;-82
2023/08/05 00:35:27;;;;;;;6.82;3.55;;;18.60;99.90;;;;;;5055812;28;20379;-78
2023/08/05 00:37:53;;;;;;;4.30;2.72;;;18.60;99.90;;;;;;5054792;28;20407;-78
2023/08/05 00:40:18;;;;;;;6.57;3.40;;;18.60;99.90;;;;;;5054340;28;20024;-78
2023/08/05 00:42:44;;;;;;;2.80;2.50;;;18.60;99.90;;;;;;5055745;28;20033;-78
2023/08/05 00:45:10;;;;;;;5.70;3.25;;;18.60;99.90;;;;;;5055732;28;20025;-78
2023/08/05 00:47:35;;;;;;;3.15;2.85;;;18.60;99.90;;;;;;5055609;28;20036;-78
2023/08/05 00:50:01;;;;;;;6.63;3.33;;;18.60;99.90;;;;;;5054411;28;20025;-82
2023/08/05 00:52:28;;;;;;;6.55;4.40;;;18.50;99.90;;;;;;5055526;28;20047;-82
2023/08/05 00:54:53;;;;;;;5.68;3.88;;;18.40;99.90;;;;;;5053364;28;20025;-82
2023/08/05 00:57:20;;;;;;;4.72;3.80;;;18.40;99.90;;;;;;5043908;28;20031;-78
2023/08/05 00:59:45;;;;;;;7.05;3.92;;;18.30;99.90;;;;;;5053819;28;20049;-82
2023/08/05 01:02:11;;;;;;;5.03;3.88;;;18.20;99.90;;;;;;5054269;28;20425;-78
2023/08/05 01:04:37;;;;;;;5.40;3.78;;;18.30;99.90;;;;;;5039738;28;20045;-82
2023/08/05 01:07:03;;;;;;;4.95;3.50;;;18.20;99.90;;;;;;5043649;28;20033;-78
2023/08/05 01:09:29;;;;;;;6.53;3.25;;;18.20;99.90;;;;;;5053697;28;20269;-78
2023/08/05 01:11:55;;;;;;;4.90;3.72;;;18.20;99.90;;;;;;5055359;28;20025;-83
2023/08/05 01:14:21;;;;;;;5.07;3.35;;;18.20;99.90;;;;;;5053798;28;20158;-82
2023/08/05 01:16:46;;;;;;;3.33;3.03;;;18.30;99.90;;;;;;5054005;28;20025;-83
2023/08/05 01:19:20;;;;;;;4.80;3.70;;;18.30;99.90;;;;;;5054872;28;20502;-79
2023/08/05 01:22:13;;;;;;;5.15;3.30;;;18.30;99.90;;;;;;5053826;28;20013;-79
2023/08/05 01:25:03;;;;;;;4.28;3.33;;;18.30;99.90;;;;;;5042457;28;20477;-78
2023/08/05 01:27:30;;;;;;;4.75;3.72;;;18.40;99.90;;;;;;5053047;28;20035;-82
2023/08/05 01:29:56;;;;;;;7.13;3.42;;;18.40;99.90;;;;;;5055043;28;20079;-83
2023/08/05 01:32:22;;;;;;;5.72;3.08;;;18.40;99.90;;;;;;5053393;28;20017;-83
2023/08/05 01:34:49;;;;;;;7.70;3.95;;;18.50;99.90;;;;;;5053776;28;20020;-83
2023/08/05 01:37:14;;;;;;;6.65;4.18;;;18.50;99.90;;;;;;5053345;28;20423;-79
2023/08/05 01:39:40;;;;;;;6.68;3.70;;;18.50;99.90;;;;;;5053666;28;20060;-79
2023/08/05 01:42:06;;;;;;;9.15;3.78;;;18.60;99.90;;;;;;5054302;28;20053;-78
2023/08/05 01:44:31;;;;;;;4.82;3.63;;;18.50;99.90;;;;;;5054696;28;20086;-82
2023/08/05 01:46:57;;;;;;;5.65;3.55;;;18.50;99.90;;;;;;5040616;28;20462;-79
2023/08/05 01:49:23;;;;;;;6.05;3.25;;;18.50;99.90;;;;;;5054734;28;20025;-81
2023/08/05 01:51:48;;;;;;;9.10;3.95;;;18.50;99.90;;;;;;5052557;28;20024;-78
2023/08/05 01:54:16;;;;;;;5.43;3.88;;;18.50;99.90;;;;;;5054605;28;20359;-78
2023/08/05 01:56:41;;;;;;;3.70;2.90;;;18.50;99.90;;;;;;5053658;28;20021;-82
2023/08/05 01:59:07;;;;;;;5.40;3.42;;;18.50;99.90;;;;;;5053266;28;20740;-83
2023/08/05 02:01:43;;;;;;;7.13;3.63;;;18.50;99.90;;;;;;5052906;28;20100;-83
2023/08/05 02:04:08;;;;;;;4.13;3.15;;;18.60;99.90;;;;;;5052959;28;20384;-83
2023/08/05 02:06:34;;;;;;;5.57;3.97;;;18.60;99.90;;;;;;5054072;28;20021;-79
2023/08/05 02:08:59;;;;;;;4.20;3.80;;;18.60;99.90;;;;;;5054192;28;20063;-78
2023/08/05 02:11:25;;;;;;;4.20;3.50;;;18.60;99.90;;;;;;5053476;28;20021;-79
2023/08/05 02:13:50;;;;;;;4.88;3.20;;;18.60;99.90;;;;;;5052916;28;20021;-83
2023/08/05 02:16:16;;;;;;;3.83;3.45;;;18.60;99.90;;;;;;5052781;28;20020;-83
2023/08/05 02:18:42;;;;;;;6.28;3.67;;;18.60;99.90;;;;;;5060295;28;20047;-78
2023/08/05 02:21:07;;;;;;;7.05;3.25;;;18.60;99.90;;;;;;5054057;28;20104;-78
2023/08/05 02:23:33;;;;;;;5.65;3.85;;;18.60;99.90;;;;;;5053831;28;20509;-79
2023/08/05 02:26:01;;;;;;;7.43;3.53;;;18.60;99.90;;;;;;5052205;28;20040;-83
2023/08/05 02:28:26;;;;;;;8.07;4.38;;;18.50;99.90;;;;;;5053563;28;20055;-79
2023/08/05 02:30:52;;;;;;;10.48;4.28;;;18.50;99.90;;;;;;5052261;28;20021;-82
2023/08/05 02:33:17;;;;;;;8.27;4.72;;;18.40;99.90;;;;;;5052541;28;20028;-79
2023/08/05 02:35:43;;;;;;;6.15;4.72;;;18.30;99.90;;;;;;5052107;28;20032;-78
2023/08/05 02:38:08;;;;;;;6.55;4.05;;;18.30;99.90;;;;;;5053693;28;20134;-79
2023/08/05 02:40:34;;;;;;;7.93;5.18;;;18.20;99.90;;;;;;5052072;28;20013;-83
2023/08/05 02:43:00;;;;;;;9.77;5.07;;;18.20;99.90;;;;;;5053443;28;20029;-83
2023/08/05 02:45:25;;;;;;;6.50;4.95;;;18.10;99.90;;;;;;5053648;28;20497;-83
2023/08/05 02:47:51;;;;;;;8.75;4.88;;;18.10;99.90;;;;;;5040413;28;20043;-78
2023/08/05 02:50:16;;;;;;;7.57;4.70;;;18.20;99.90;;;;;;5050790;28;20025;-82
2023/08/05 02:52:42;;;;;;;7.43;5.00;;;18.10;99.90;;;;;;5050199;28;20547;-78
2023/08/05 02:55:08;;;;;;;4.97;4.25;;;18.10;99.90;;;;;;5053503;28;20061;-82
2023/08/05 02:57:33;;;;;;;8.95;5.32;;;18.20;99.90;;;;;;5050842;28;20028;-82
2023/08/05 02:59:59;;;;;;;5.15;4.20;;;18.20;99.90;;;;;;5051988;28;20508;-78
2023/08/05 03:02:24;;;;;;;7.40;5.00;;;18.20;99.90;;;;;;5053110;28;20470;-78
2023/08/05 03:04:50;;;;;;;7.43;4.78;;;18.20;99.90;;;;;;5051782;28;20033;-78
2023/08/05 03:07:16;;;;;;;8.70;4.78;;;18.20;99.90;;;;;;5051518;28;20033;-78
2023/08/05 03:09:41;;;;;;;10.90;4.00;;;18.10;99.90;;;;;;5052965;28;20021;-78
2023/08/05 03:12:08;;;;;;;11.40;4.90;;;18.20;99.90;;;;;;5052942;28;20902;-81
2023/08/05 03:14:34;;;;;;;4.35;3.95;;;18.20;99.90;;;;;;5051795;28;20070;-78
2023/08/05 03:17:00;;;;;;;8.20;4.78;;;18.10;99.90;;;;;;5052611;28;20043;-82
2023/08/05 03:19:25;;;;;;;9.77;5.05;;;18.20;99.90;;;;;;5052942;28;20032;-78
2023/08/05 03:21:51;;;;;;;8.73;4.72;;;18.20;99.90;;;;;;5050427;28;20434;-82
2023/08/05 03:24:16;;;;;;;10.27;5.80;;;18.10;99.90;;;;;;5052546;28;20025;-78
2023/08/05 03:26:42;;;;;;;7.75;5.05;;;18.10;99.90;;;;;;5052850;28;20020;-78
2023/08/05 03:29:08;;;;;;;7.75;4.95;;;18.00;99.90;;;;;;5052498;28;20052;-82
2023/08/05 03:31:33;;;;;;;7.15;5.35;;;18.00;99.90;;;;;;5051531;28;20021;-78
2023/08/05 03:33:59;;;;;;;6.70;5.18;;;17.90;99.90;;;;;;5052485;28;20032;-78
2023/08/05 03:36:24;;;;;;;10.88;5.63;;;17.90;99.90;;;;;;5051566;28;20032;-83
2023/08/05 03:38:51;;;;;;;7.28;5.43;;;17.80;99.90;;;;;;5051168;28;20017;-78
2023/08/05 03:41:17;;;;;;;8.50;5.03;;;17.80;99.90;;;;;;5052662;28;20116;-78
2023/08/05 03:43:43;;;;;;;9.05;5.85;;;17.80;99.90;;;;;;5051073;28;20045;-82
2023/08/05 03:46:08;;;;;;;7.95;5.60;;;17.80;99.90;;;;;;5051359;28;20028;-78
2023/08/05 03:48:34;;;;;;;12.77;5.57;;;17.70;99.90;;;;;;5051063;28;20036;-82
2023/08/05 03:51:00;;;;;;;6.32;5.20;;;17.70;99.90;;;;;;5051370;28;20080;-82
2023/08/05 03:53:25;;;;;;;7.45;5.40;;;17.70;99.90;;;;;;5050958;28;20020;-82
2023/08/05 03:55:51;;;;;;;9.10;5.50;;;17.60;99.90;;;;;;5050084;28;20060;-78
2023/08/05 03:58:19;;;;;;;6.93;5.93;;;17.60;99.90;;;;;;5052115;28;20108;-82
2023/08/05 04:00:45;;;;;;;8.65;5.53;;;17.60;99.90;;;;;;5052597;28;20359;-82
2023/08/05 04:03:11;;;;;;;8.40;5.03;;;17.50;99.90;;;;;;5051374;28;20107;-78
2023/08/05 04:05:37;;;;;;;7.32;6.07;;;17.50;99.90;;;;;;5055367;28;20032;-82
2023/08/05 04:08:03;;;;;;;12.23;5.82;;;17.40;99.90;;;;;;5055001;28;20037;-78
2023/08/05 04:10:29;;;;;;;7.13;5.57;;;17.40;99.90;;;;;;5055381;28;20009;-79
2023/08/05 04:12:56;;;;;;;7.47;4.95;;;17.40;99.90;;;;;;5055158;28;20032;-82
2023/08/05 04:15:23;;;;;;;7.63;4.78;;;17.40;99.90;;;;;;5056266;28;20104;-78
2023/08/05 04:17:50;;;;;;;8.73;4.20;;;17.30;99.90;;;;;;5054731;28;20474;-83
2023/08/05 04:20:17;;;;;;;7.15;3.97;;;17.30;99.90;;;;;;5056309;28;20095;-82
2023/08/05 04:22:48;;;;;;;6.15;4.40;;;17.20;99.90;;;;;;5054702;28;20371;-79
2023/08/05 04:25:13;;;;;;;9.93;4.75;;;17.20;99.90;;;;;;5054876;28;20017;-79
2023/08/05 04:27:39;;;;;;;6.72;5.20;;;17.20;99.90;;;;;;5055781;28;20571;-79
2023/08/05 04:30:07;;;;;;;9.15;6.03;;;17.20;99.90;;;;;;5056117;28;20112;-79
2023/08/05 04:32:32;;;;;;;8.98;6.70;;;17.20;99.90;;;;;;5055936;28;20109;-79
2023/08/05 04:34:58;;;;;;;12.13;6.55;;;17.10;99.90;;;;;;5055997;28;20510;-79
2023/08/05 04:37:23;;;;;;;12.25;6.82;;;17.10;99.90;;;;;;5055731;28;20032;-83
2023/08/05 04:39:49;;;;;;;8.23;5.88;;;17.10;99.90;;;;;;5054609;28;20027;-79
2023/08/05 04:42:16;;;;;;;7.97;5.88;;;17.10;99.90;;;;;;5055640;28;20108;-79
2023/08/05 04:44:42;;;;;;;12.82;7.32;;;17.10;99.90;;;;;;5054598;28;20025;-78
2023/08/05 04:47:09;;;;;;;9.02;6.70;;;17.00;99.90;;;;;;5055595;28;20039;-82
2023/08/05 04:49:35;;;;;;;9.50;7.13;;;17.00;99.90;;;;;;5054458;28;20025;-82
2023/08/05 04:52:06;;;;;;;9.40;6.55;;;17.00;99.90;;;;;;5055517;28;20021;-81
2023/08/05 04:54:45;;;;;;;11.13;6.00;;;16.90;99.90;;;;;;5054438;28;20021;-82
2023/08/05 04:57:12;;;;;;;6.85;4.13;;;16.70;99.90;;;;;;5052624;28;20021;-78
2023/08/05 04:59:38;;;;;;;7.35;4.75;;;16.70;99.90;;;;;;5054415;28;20032;-78
2023/08/05 05:02:04;;;;;;;4.72;3.63;;;16.60;99.90;;;;;;5055199;28;20021;-78
2023/08/05 05:04:29;;;;;;;5.32;2.67;;;16.50;99.90;;;;;;5055405;28;20048;-78
2023/08/05 05:06:55;;;;;;;4.00;2.70;;;16.40;99.90;;;;;;5055193;28;20066;-77
2023/08/05 05:09:21;;;;;;;5.00;2.63;;;16.30;99.90;;;;;;5054126;28;20052;-81
2023/08/05 05:11:47;;;;;;;9.07;2.53;;;16.20;99.90;;;;;;5053763;28;20021;-77
2023/08/05 05:14:13;;;;;;;4.13;2.00;;;16.20;99.90;;;;;;5054859;28;20390;-77
2023/08/05 05:16:38;;;;;;;4.20;2.65;;;16.10;99.90;;;;;;5054849;28;20021;-82
2023/08/05 05:19:04;;;;;;;4.47;2.38;;;16.10;99.90;;;;;;5053788;28;20488;-82
2023/08/05 05:21:30;;;;;;;3.70;2.20;;;16.00;99.90;;;;;;5054853;28;20032;-81
2023/08/05 05:23:56;;;;;;;2.35;2.15;;;16.00;99.90;;;;;;5055109;28;20036;-81
2023/08/05 05:26:21;;;;;;;4.28;2.38;;;16.00;99.90;;;;;;5053586;28;20017;-81
2023/08/05 05:28:47;;;;;;;9.05;2.50;;;15.90;99.90;;;;;;5053691;28;20455;-81
2023/08/05 05:31:12;;;;;;;2.92;2.28;;;15.90;99.90;;;;;;5053348;28;20040;-82
2023/08/05 05:33:38;;;;;;;2.17;1.98;;;15.80;99.90;;;;;;5051396;28;20033;-78
2023/08/05 05:36:04;;;;;;;3.33;2.28;;;15.80;99.90;;;;;;5050182;28;20398;-82
2023/08/05 05:38:29;;;;;;;2.63;2.17;;;15.80;99.90;;;;;;5051753;28;20390;-78
2023/08/05 05:40:55;;;;;;;8.93;3.35;;;15.70;99.90;;;;;;5049342;28;20017;-77
2023/08/05 05:43:21;;;;;;;4.45;2.38;;;15.70;99.90;;;;;;5053505;28;20071;-82
2023/08/05 05:45:46;;;;;;;3.13;2.47;;;15.70;99.90;;;;;;5033447;28;20061;-78
2023/08/05 05:48:12;;;;;;;4.78;2.75;;;15.70;99.90;;;;;;5045358;28;20079;-78
2023/08/05 05:50:41;;;;;;;3.08;2.75;;;15.70;99.90;;;;;;5053031;28;20017;-78
2023/08/05 05:53:08;;;;;;;4.93;2.55;;;15.70;99.90;;;;;;5049339;28;20014;-78
2023/08/05 05:55:34;;;;;;;4.00;2.70;;;15.60;99.90;;;;;;5043638;28;20119;-82
2023/08/05 05:58:00;;;;;;;4.60;2.80;;;15.60;99.90;;;;;;5044957;28;20025;-78
2023/08/05 06:00:25;;;;;;;4.32;3.33;;;15.60;99.90;;;;;;5041164;28;20017;-82
2023/08/05 06:02:51;;;;;;;3.45;2.55;;;15.60;99.90;;;;;;5039653;28;20483;-81
2023/08/05 06:05:17;;;;;;;4.60;3.20;;;15.60;99.90;;;;;;5038119;28;20151;-82
2023/08/05 06:07:43;;;;;;;3.35;2.67;;;15.60;99.90;;;;;;5035786;28;20116;-82
2023/08/05 06:10:09;;;;;;;6.35;2.70;;;15.60;99.90;;;;;;5035727;28;20013;-78
2023/08/05 06:12:37;;;;;;;4.40;3.20;;;15.60;99.90;;;;;;5044662;28;20025;-79
2023/08/05 06:15:04;;;;;;;8.23;3.15;;;15.60;99.90;;;;;;5044132;28;20025;-78
2023/08/05 06:17:29;;;;;;;6.63;3.40;;;15.70;99.90;;;;;;5049677;28;20058;-82
2023/08/05 06:19:55;;;;;;;3.30;2.90;;;15.60;99.90;;;;;;5046507;28;20112;-82
2023/08/05 06:22:20;;;;;;;4.00;3.33;;;15.70;99.90;;;;;;5036524;28;20108;-82
2023/08/05 06:24:46;;;;;;;7.38;3.65;;;15.70;99.90;;;;;;5042114;28;20032;-82
2023/08/05 06:27:11;;;;;;;4.65;2.95;;;15.60;99.90;;;;;;5034511;28;20044;-77
2023/08/05 06:29:37;;;;;;;6.80;3.92;;;15.60;99.90;;;;;;5034562;28;20109;-77
2023/08/05 06:32:03;;;;;;;6.30;4.13;;;15.50;99.90;;;;;;5036138;28;20463;-77
2023/08/05 06:34:28;;;;;;;7.10;4.88;;;15.50;99.90;;;;;;5037969;28;20067;-82
2023/08/05 06:36:54;;;;;;;5.82;4.82;;;15.50;99.90;;;;;;5043486;28;20046;-82
2023/08/05 06:39:20;;;;;;;5.82;4.97;;;15.50;99.90;;;;;;5046306;28;20112;-78
2023/08/05 06:41:45;;;;;;;6.40;4.38;;;15.50;99.90;;;;;;5051946;28;20031;-78
2023/08/05 06:44:11;;;;;;;6.78;4.10;;;15.60;99.90;;;;;;5053419;28;20021;-82
2023/08/05 06:46:39;;;;;;;5.80;4.13;;;15.80;99.90;;;;;;5049539;28;20032;-78
2023/08/05 06:49:05;;;;;;;8.00;5.18;;;15.80;99.90;;;;;;5050469;28;20029;-82
2023/08/05 06:51:32;;;;;;;6.47;4.35;;;16.00;99.90;;;;;;5049437;28;20020;-82
2023/08/05 06:53:58;;;;;;;4.35;3.92;;;16.00;99.90;;;;;;5051174;28;20359;-82
2023/08/05 06:56:23;;;;;;;5.22;3.40;;;16.10;99.90;;;;;;5048309;28;20029;-78
2023/08/05 06:58:49;;;;;;;5.28;4.10;;;16.30;99.90;;;;;;5035010;28;20025;-78
2023/08/05 07:01:18;;;;;;;4.50;4.05;;;16.40;99.90;;;;;;5045312;28;20025;-79
2023/08/05 07:03:44;;;;;;;6.40;4.38;;;16.50;99.90;;;;;;5050740;28;20049;-79
2023/08/05 07:06:10;;;;;;;4.03;3.70;;;16.50;99.90;;;;;;5051818;28;20063;-83
2023/08/05 07:08:35;;;;;;;5.35;3.75;;;16.50;99.90;;;;;;5050683;28;20122;-79
2023/08/05 07:11:01;;;;;;;5.30;3.58;;;16.50;99.90;;;;;;5042169;28;20036;-83
2023/08/05 07:13:27;;;;;;;7.07;4.15;;;16.60;99.90;;;;;;5038407;28;20039;-82
2023/08/05 07:16:03;;;;;;;6.60;5.25;;;16.60;99.90;;;;;;5043934;28;20024;-78
2023/08/05 07:18:29;;;;;;;7.70;4.13;;;16.60;99.90;;;;;;5048526;28;20395;-78
2023/08/05 07:20:55;;;;;;;6.03;4.55;;;16.50;99.90;;;;;;5040873;28;20471;-78
2023/08/05 07:23:21;;;;;;;7.03;5.00;;;16.40;99.90;;;;;;5049792;28;20063;-79
2023/08/05 07:25:47;;;;;;;9.00;6.65;;;16.40;99.90;;;;;;5039586;28;20044;-83
2023/08/05 07:28:13;;;;;;;5.63;4.80;;;16.40;99.90;;;;;;5046871;28;20029;-84
2023/08/05 07:30:39;;;;;;;6.70;4.45;;;16.30;99.90;;;;;;5041389;28;20104;-83
2023/08/05 07:33:07;;;;;;;7.35;4.78;;;16.30;99.90;;;;;;5042672;28;20025;-78
2023/08/05 07:35:33;;;;;;;7.35;5.88;;;16.30;99.90;;;;;;5052315;28;20474;-79
2023/08/05 07:38:00;;;;;;;7.80;5.07;;;16.40;99.90;;;;;;5050308;28;20021;-77
2023/08/05 07:40:27;;;;;;;6.60;4.93;;;16.30;99.90;;;;;;5051517;28;20119;-77
2023/08/05 07:42:53;;;;;;;5.75;5.20;;;16.30;99.90;;;;;;5046579;28;20044;-78
2023/08/05 07:45:21;;;;;;;6.40;4.72;;;16.40;99.90;;;;;;5052768;28;20036;-85
2023/08/05 07:47:47;;;;;;;6.32;4.78;;;16.50;99.90;;;;;;5052525;28;20024;-79
2023/08/05 07:50:21;;;;;;;5.97;4.70;;;16.60;99.90;;;;;;5052421;28;20379;-82
2023/08/05 07:52:46;;;;;;;5.95;5.45;;;16.70;99.90;;;;;;5051509;28;20379;-78
2023/08/05 07:55:12;;;;;;;6.72;5.35;;;16.90;99.90;;;;;;5051009;28;20021;-83
2023/08/05 07:57:40;;;;;;;5.55;4.20;;;17.10;99.90;;;;;;5052582;28;20409;-77
2023/08/05 08:00:08;;;;;;;5.95;4.25;;;17.20;99.90;;;;;;5050941;28;20021;-77
2023/08/05 08:02:34;;;;;;;10.90;5.25;;;17.30;99.90;;;;;;5040815;28;20109;-78
2023/08/05 08:05:04;;;;;;;8.35;4.85;;;17.40;99.90;;;;;;5047018;28;20080;-78
2023/08/05 08:07:30;;;;;;;6.97;4.15;;;17.40;99.90;;;;;;5050854;28;20044;-78
2023/08/05 08:09:55;;;;;;;7.20;4.78;;;17.40;99.90;;;;;;5051103;28;20025;-82
2023/08/05 08:12:21;;;;;;;8.55;4.78;;;17.40;99.90;;;;;;5043194;28;20037;-83
2023/08/05 08:14:46;;;;;;;8.25;4.63;;;17.40;99.90;;;;;;5048698;28;20025;-78
2023/08/05 08:17:12;;;;;;;6.03;4.70;;;17.40;99.90;;;;;;5043358;28;20025;-79
2023/08/05 08:19:38;;;;;;;5.75;4.70;;;17.40;99.90;;;;;;5051725;28;20516;-78
2023/08/05 08:22:03;;;;;;;5.30;4.78;;;17.30;99.90;;;;;;5051888;28;20029;-78
2023/08/05 08:24:29;;;;;;;6.13;4.47;;;17.40;99.90;;;;;;5051635;28;20441;-78
2023/08/05 08:26:54;;;;;;;8.20;5.28;;;17.40;99.90;;;;;;5050626;28;20033;-78
2023/08/05 08:29:20;;;;;;;6.35;4.97;;;17.50;99.90;;;;;;5050453;28;20017;-78
2023/08/05 08:31:46;;;;;;;6.78;5.20;;;17.50;99.90;;;;;;5051934;28;20028;-78
2023/08/05 08:34:11;;;;;;;5.60;5.00;;;17.50;99.90;;;;;;5050260;28;20017;-78
2023/08/05 08:36:37;;;;;;;9.18;5.03;;;17.60;99.90;;;;;;5050926;28;20049;-78
2023/08/05 08:39:02;;;;;;;5.65;5.00;;;17.60;99.90;;;;;;5047361;28;20029;-78
2023/08/05 08:41:29;;;;;;;7.55;5.15;;;17.70;99.90;;;;;;5042683;28;20045;-78
2023/08/05 08:43:55;;;;;;;7.10;4.78;;;17.90;99.90;;;;;;5046909;28;20047;-78
2023/08/05 08:46:21;;;;;;;7.80;5.18;;;18.00;99.90;;;;;;5051797;28;20104;-78
2023/08/05 08:48:51;;;;;;;5.75;4.97;;;18.10;99.90;;;;;;5051891;28;20124;-78
2023/08/05 08:51:19;;;;;;;7.38;5.40;;;18.10;99.90;;;;;;5053977;28;20704;-78
2023/08/05 08:53:47;;;;;;;6.13;5.35;;;18.10;99.90;;;;;;5055054;28;20020;-78
2023/08/05 08:56:12;;;;;;;7.22;5.40;;;18.10;99.90;;;;;;5045865;28;20025;-78
2023/08/05 08:58:38;;;;;;;6.30;5.32;;;18.10;99.90;;;;;;5050367;28;20036;-79
2023/08/05 09:01:05;;;;;;;7.53;6.15;;;18.00;99.90;;;;;;5053815;28;20024;-78
2023/08/05 09:03:34;;;;;;;7.20;5.00;;;18.00;99.90;;;;;;5054691;28;20053;-79
2023/08/05 09:06:00;;;;;;;9.20;5.35;;;18.00;99.90;;;;;;5053969;28;20044;-79
2023/08/05 09:08:26;;;;;;;8.13;6.03;;;18.00;99.90;;;;;;5047232;28;20553;-82
2023/08/05 09:10:52;;;;;;;6.82;5.72;;;17.90;99.90;;;;;;5052203;28;20494;-82
2023/08/05 09:13:19;;;;;;;9.05;6.80;;;17.90;99.90;;;;;;5050656;28;20028;-79
2023/08/05 09:15:46;;;;;;;6.65;6.10;;;17.90;99.90;;;;;;5055201;28;20014;-78
2023/08/05 09:18:11;;;;;;;6.43;5.80;;;17.80;99.90;;;;;;5054692;28;20017;-78
2023/08/05 09:20:38;;;;;;;7.47;6.25;;;17.80;99.90;;;;;;5054910;28;20063;-79
2023/08/05 09:23:08;;;;;;;13.38;7.00;;;17.80;99.90;;;;;;5044827;28;20483;-79
2023/08/05 09:25:40;;;;;;;8.27;7.47;;;17.80;99.90;;;;;;5045176;28;20037;-79
2023/08/05 09:28:06;;;;;;;8.70;7.18;;;17.80;99.90;;;;;;5052740;28;20446;-78
2023/08/05 09:30:35;;;;;;;9.70;7.03;;;17.80;99.90;;;;;;5051321;28;20017;-79
2023/08/05 09:33:01;;;;;;;7.75;6.93;;;17.80;99.90;;;;;;5052431;28;20021;-78
2023/08/05 09:35:27;;;;;;;10.25;7.38;;;17.80;99.90;;;;;;5052102;28;20013;-79
2023/08/05 09:37:54;;;;;;;9.82;7.60;;;17.70;99.90;;;;;;5052755;28;20067;-79
2023/08/05 09:40:24;;;;;;;8.50;7.63;;;17.70;99.90;;;;;;5044341;28;20052;-78
2023/08/05 09:42:52;;;;;;;9.50;8.43;;;17.60;99.90;;;;;;5049816;28;20025;-80
2023/08/05 09:45:19;;;;;;;10.48;8.70;;;17.70;99.90;;;;;;5046650;28;20056;-79
2023/08/05 09:47:52;;;;;;;10.73;8.48;;;17.70;99.90;;;;;;5044891;28;20033;-79
2023/08/05 09:50:20;;;;;;;10.65;9.35;;;17.70;99.90;;;;;;5049425;28;20025;-79
2023/08/05 09:52:50;;;;;;;10.98;9.55;;;17.70;99.90;;;;;;5052138;28;20017;-79
2023/08/05 09:55:18;;;;;;;12.02;10.75;;;17.80;99.90;;;;;;5045654;28;20049;-79
2023/08/05 09:57:45;;;;;;;13.10;9.73;;;17.80;99.90;;;;;;5044989;28;20057;-79
2023/08/05 10:00:14;;;;;;;13.25;10.80;;;17.80;99.90;;;;;;5051426;28;20036;-79
2023/08/05 10:02:41;;;;;;;13.85;11.43;;;17.90;99.90;;;;;;5049566;28;20032;-79
2023/08/05 10:05:12;;;;;;;17.35;11.07;;;17.80;99.90;;;;;;5044029;28;20088;-79
2023/08/05 10:07:40;;;;;;;15.85;12.25;;;17.80;99.90;;;;;;5043196;28;20452;-78
2023/08/05 10:10:08;;;;;;;16.75;11.18;;;17.70;99.90;;;;;;5044315;28;20029;-79
2023/08/05 10:12:43;;;;;;;12.50;11.18;;;17.70;99.90;;;;;;5038720;28;20391;-79
2023/08/05 10:15:17;;;;;;;15.90;13.80;;;17.80;99.90;;;;;;5041754;28;20032;-79
2023/08/05 10:17:42;;;;;;;14.00;12.07;;;17.90;99.90;;;;;;5039276;28;20040;-79
2023/08/05 10:20:12;;;;;;;13.43;12.00;;;18.00;99.90;;;;;;5044521;28;20013;-78
2023/08/05 10:22:39;;;;;;;16.83;12.57;;;18.10;99.90;;;;;;5043549;28;20026;-79
2023/08/05 10:25:05;;;;;;;14.23;11.68;;;18.10;99.90;;;;;;5053775;28;20121;-79
2023/08/05 10:27:36;;;;;;;14.80;11.63;;;18.10;99.90;;;;;;5051192;28;20478;-79
2023/08/05 10:30:16;;;;;;;15.80;13.15;;;18.10;99.90;;;;;;5033254;28;20026;-79
2023/08/05 10:32:55;;;;;;;16.13;12.43;;;18.10;99.90;;;;;;5040692;28;20095;-78
2023/08/05 10:35:42;;;;;;;13.55;10.93;;;18.10;99.90;;;;;;5040554;28;20025;-78
2023/08/05 10:38:15;;;;;;;14.77;11.40;;;18.00;99.90;;;;;;5052112;28;20528;-78
2023/08/05 10:40:51;;;;;;;14.30;12.00;;;18.10;99.90;;;;;;5053739;28;20029;-79
2023/08/05 10:43:34;;;;;;;15.40;12.55;;;18.10;99.90;;;;;;5034495;28;20151;-78
2023/08/05 10:46:06;;;;;;;13.00;11.63;;;18.10;99.90;;;;;;5047968;28;20036;-79
2023/08/05 10:48:46;;;;;;;14.97;11.67;;;18.10;99.90;;;;;;5042088;28;20029;-79
2023/08/05 10:51:14;;;;;;;13.98;12.50;;;18.10;99.90;;;;;;5053070;28;20282;-79
2023/08/05 10:53:44;;;;;;;15.90;11.90;;;18.10;99.90;;;;;;5051133;28;20067;-82
2023/08/05 10:56:13;;;;;;;16.45;12.95;;;18.20;99.90;;;;;;5052374;28;20025;-82
2023/08/05 10:58:50;;;;;;;15.85;11.70;;;18.30;99.90;;;;;;5050893;28;20017;-82
2023/08/05 11:01:17;;;;;;;14.93;12.10;;;18.40;99.90;;;;;;5051109;28;20036;-79
2023/08/05 11:03:45;;;;;;;19.58;12.73;;;18.40;99.90;;;;;;5052073;28;20124;-78
2023/08/05 11:06:13;;;;;;;16.50;12.70;;;18.50;99.90;;;;;;5049385;28;20490;-80
2023/08/05 11:08:41;;;;;;;15.82;12.52;;;18.60;99.90;;;;;;5052715;28;20057;-78
2023/08/05 11:11:09;;;;;;;16.60;12.50;;;18.60;99.90;;;;;;5051608;28;20111;-79
2023/08/05 11:13:48;;;;;;;14.07;11.43;;;18.70;99.90;;;;;;5036322;28;20017;-78
2023/08/05 11:16:18;;;;;;;21.35;13.68;;;18.70;99.90;;;;;;5051884;28;20025;-78
2023/08/05 11:19:06;;;;;;;14.75;11.82;;;18.70;99.90;;;;;;5051537;28;20020;-78
2023/08/05 11:21:32;;;;;;;14.63;12.07;;;18.80;99.90;;;;;;5051080;28;20391;-78
2023/08/05 11:23:58;;;;;;;17.05;13.80;;;18.60;99.90;;;;;;5051565;28;20029;-78
2023/08/05 11:26:25;;;;;;;19.23;13.15;;;18.70;99.90;;;;;;5052053;28;20020;-78
2023/08/05 11:28:50;;;;;;;14.20;11.88;;;18.70;99.90;;;;;;5050976;28;20094;-78
2023/08/05 11:31:26;;;;;;;11.50;9.93;;;18.80;99.90;;;;;;5050350;28;20020;-78
2023/08/05 11:33:52;;;;;;;16.73;11.93;;;18.80;99.90;;;;;;5051588;28;20547;-78
2023/08/05 11:36:28;;;;;;;18.17;13.63;;;18.80;99.90;;;;;;5051337;28;20071;-78
2023/08/05 11:38:59;;;;;;;18.98;13.82;;;18.70;99.90;;;;;;5051153;28;20027;-78
2023/08/05 11:41:26;;;;;;;18.65;13.45;;;18.80;99.90;;;;;;5032234;28;20505;-79
2023/08/05 11:43:51;;;;;;;17.67;13.50;;;18.80;99.90;;;;;;5046414;28;20059;-78
2023/08/05 11:46:28;;;;;;;13.52;12.02;;;19.00;99.90;;;;;;5051383;28;20040;-78
2023/08/05 11:49:11;;;;;;;15.65;11.85;;;19.10;99.90;;;;;;5052311;28;20025;-78
2023/08/05 11:51:49;;;;;;;16.85;10.73;;;19.30;99.90;;;;;;5052770;28;20075;-78
2023/08/05 11:54:26;;;;;;;15.07;12.40;;;19.30;99.90;;;;;;5040003;28;20569;-79
2023/08/05 11:56:51;;;;;;;21.95;12.50;;;19.50;99.90;;;;;;5049884;28;20037;-79
2023/08/05 11:59:34;;;;;;;15.25;12.05;;;19.50;99.90;;;;;;5042279;28;20025;-79
2023/08/05 12:02:02;;;;;;;17.23;11.95;;;19.50;99.90;;;;;;5050277;28;20599;-79
2023/08/05 12:04:27;;;;;;;16.35;12.95;;;19.40;99.90;;;;;;5052598;28;20068;-78
2023/08/05 12:06:53;;;;;;;17.33;13.00;;;19.20;99.90;;;;;;5052249;28;20025;-78
2023/08/05 12:09:19;;;;;;;22.70;12.45;;;19.30;99.90;;;;;;5052483;28;20037;-79
2023/08/05 12:11:45;;;;;;;15.43;12.35;;;19.30;99.90;;;;;;5051975;28;20017;-78
2023/08/05 12:14:14;;;;;;;15.35;12.63;;;19.20;99.90;;;;;;5041457;28;20068;-78
2023/08/05 12:16:40;;;;;;;14.18;10.85;;;19.30;99.90;;;;;;5049676;28;20021;-78
2023/08/05 12:19:05;;;;;;;13.73;11.10;;;19.30;99.90;;;;;;5052385;28;20079;-78
2023/08/05 12:21:31;;;;;;;22.83;13.00;;;19.30;99.90;;;;;;5050656;28;20017;-78
2023/08/05 12:23:57;;;;;;;18.42;13.40;;;19.30;99.90;;;;;;5053026;28;20029;-78
2023/08/05 12:26:26;;;;;;;42.10;33.40;;;19.30;99.90;;;;;;5056080;28;20021;-78
2023/08/05 12:28:52;;;;;;;17.00;12.25;;;19.20;99.90;;;;;;5054790;28;20033;-78
2023/08/05 12:31:18;;;;;;;16.50;11.98;;;19.20;99.90;;;;;;5054693;28;20024;-78
2023/08/05 12:33:43;;;;;;;25.67;16.70;;;19.40;99.90;;;;;;5054817;28;20021;-78
2023/08/05 12:36:10;;;;;;;14.73;12.10;;;19.50;99.90;;;;;;5055947;28;20025;-78
2023/08/05 12:38:35;;;;;;;15.02;11.52;;;19.80;99.90;;;;;;5055951;28;20070;-79
2023/08/05 12:41:01;;;;;;;15.25;12.00;;;19.90;99.90;;;;;;5055804;28;20022;-78
2023/08/05 12:43:26;;;;;;;13.63;10.98;;;19.80;99.90;;;;;;5055818;28;20151;-78